sensor_id;sensor_type;location;lat;lon;timestamp;P1;durP1;ratioP1;P2;durP2;ratioP2
51852;SDS011;37894;53.172;6.598;2022-07-22T00:01:02;14.20;;;3.95;;
51852;SDS011;37894;53.172;6.598;2022-07-22T00:03:28;14.00;;;3.53;;
51852;SDS011;37894;53.172;6.598;2022-07-22T00:05:53;11.95;;;3.83;;
51852;SDS011;37894;53.172;6.598;2022-07-22T00:08:19;11.38;;;3.95;;
51852;SDS011;37894;53.172;6.598;2022-07-22T00:10:45;11.93;;;3.97;;
51852;SDS011;37894;53.172;6.598;2022-07-22T00:13:11;13.43;;;4.43;;
51852;SDS011;37894;53.172;6.598;2022-07-22T00:15:37;10.75;;;3.53;;
51852;SDS011;37894;53.172;6.598;2022-07-22T00:18:02;14.75;;;4.95;;
51852;SDS011;37894;53.172;6.598;2022-07-22T00:20:28;15.02;;;4.50;;
51852;SDS011;37894;53.172;6.598;2022-07-22T00:22:54;14.30;;;4.15;;
51852;SDS011;37894;53.172;6.598;2022-07-22T00:25:19;10.93;;;4.70;;
51852;SDS011;37894;53.172;6.598;2022-07-22T00:27:45;14.60;;;4.15;;
51852;SDS011;37894;53.172;6.598;2022-07-22T00:30:11;10.13;;;3.83;;
51852;SDS011;37894;53.172;6.598;2022-07-22T00:32:37;12.40;;;3.83;;
51852;SDS011;37894;53.172;6.598;2022-07-22T00:35:03;13.95;;;3.88;;
51852;SDS011;37894;53.172;6.598;2022-07-22T00:37:29;15.18;;;4.25;;
51852;SDS011;37894;53.172;6.598;2022-07-22T00:39:54;11.18;;;3.88;;
51852;SDS011;37894;53.172;6.598;2022-07-22T00:42:20;9.75;;;3.92;;
51852;SDS011;37894;53.172;6.598;2022-07-22T00:44:46;7.25;;;2.85;;
51852;SDS011;37894;53.172;6.598;2022-07-22T00:47:12;7.72;;;3.15;;
51852;SDS011;37894;53.172;6.598;2022-07-22T00:49:37;7.40;;;3.08;;
51852;SDS011;37894;53.172;6.598;2022-07-22T00:52:03;10.68;;;3.35;;
51852;SDS011;37894;53.172;6.598;2022-07-22T00:54:30;8.05;;;3.10;;
51852;SDS011;37894;53.172;6.598;2022-07-22T00:56:57;10.23;;;2.63;;
51852;SDS011;37894;53.172;6.598;2022-07-22T00:59:23;8.70;;;2.63;;
51852;SDS011;37894;53.172;6.598;2022-07-22T01:01:50;9.93;;;2.92;;
51852;SDS011;37894;53.172;6.598;2022-07-22T01:04:16;9.80;;;2.70;;
51852;SDS011;37894;53.172;6.598;2022-07-22T01:06:42;12.82;;;3.00;;
51852;SDS011;37894;53.172;6.598;2022-07-22T01:09:10;10.30;;;2.60;;
51852;SDS011;37894;53.172;6.598;2022-07-22T01:11:36;9.75;;;2.40;;
51852;SDS011;37894;53.172;6.598;2022-07-22T01:14:02;9.55;;;2.38;;
51852;SDS011;37894;53.172;6.598;2022-07-22T01:16:28;6.53;;;2.30;;
51852;SDS011;37894;53.172;6.598;2022-07-22T01:18:54;11.68;;;2.60;;
51852;SDS011;37894;53.172;6.598;2022-07-22T01:21:20;7.45;;;2.80;;
51852;SDS011;37894;53.172;6.598;2022-07-22T01:23:46;8.52;;;2.22;;
51852;SDS011;37894;53.172;6.598;2022-07-22T01:26:13;9.00;;;2.60;;
51852;SDS011;37894;53.172;6.598;2022-07-22T01:28:39;10.55;;;3.05;;
51852;SDS011;37894;53.172;6.598;2022-07-22T01:31:05;7.65;;;2.58;;
51852;SDS011;37894;53.172;6.598;2022-07-22T01:33:31;15.80;;;2.95;;
51852;SDS011;37894;53.172;6.598;2022-07-22T01:35:58;9.23;;;2.58;;
51852;SDS011;37894;53.172;6.598;2022-07-22T01:38:23;13.50;;;2.83;;
51852;SDS011;37894;53.172;6.598;2022-07-22T01:40:49;7.85;;;2.15;;
51852;SDS011;37894;53.172;6.598;2022-07-22T01:43:15;9.63;;;2.60;;
51852;SDS011;37894;53.172;6.598;2022-07-22T01:45:43;6.35;;;2.00;;
51852;SDS011;37894;53.172;6.598;2022-07-22T01:48:09;7.75;;;2.30;;
51852;SDS011;37894;53.172;6.598;2022-07-22T01:50:35;7.38;;;2.55;;
51852;SDS011;37894;53.172;6.598;2022-07-22T01:53:01;13.05;;;2.45;;
51852;SDS011;37894;53.172;6.598;2022-07-22T01:55:27;8.45;;;2.00;;
51852;SDS011;37894;53.172;6.598;2022-07-22T01:57:53;6.72;;;2.17;;
51852;SDS011;37894;53.172;6.598;2022-07-22T02:00:18;6.35;;;2.28;;
51852;SDS011;37894;53.172;6.598;2022-07-22T02:02:45;9.52;;;2.42;;
51852;SDS011;37894;53.172;6.598;2022-07-22T02:05:11;9.05;;;2.67;;
51852;SDS011;37894;53.172;6.598;2022-07-22T02:07:37;5.75;;;2.00;;
51852;SDS011;37894;53.172;6.598;2022-07-22T02:10:03;9.05;;;2.33;;
51852;SDS011;37894;53.172;6.598;2022-07-22T02:12:30;7.88;;;2.00;;
51852;SDS011;37894;53.172;6.598;2022-07-22T02:14:55;6.47;;;1.65;;
51852;SDS011;37894;53.172;6.598;2022-07-22T02:17:21;7.57;;;2.22;;
51852;SDS011;37894;53.172;6.598;2022-07-22T02:19:47;7.25;;;1.73;;
51852;SDS011;37894;53.172;6.598;2022-07-22T02:22:12;10.70;;;2.10;;
51852;SDS011;37894;53.172;6.598;2022-07-22T02:24:38;4.47;;;1.95;;
51852;SDS011;37894;53.172;6.598;2022-07-22T02:27:03;7.53;;;2.25;;
51852;SDS011;37894;53.172;6.598;2022-07-22T02:29:29;8.48;;;1.98;;
51852;SDS011;37894;53.172;6.598;2022-07-22T02:31:56;7.18;;;1.90;;
51852;SDS011;37894;53.172;6.598;2022-07-22T02:34:22;6.43;;;2.05;;
51852;SDS011;37894;53.172;6.598;2022-07-22T02:36:47;5.68;;;2.05;;
51852;SDS011;37894;53.172;6.598;2022-07-22T02:39:13;8.75;;;1.77;;
51852;SDS011;37894;53.172;6.598;2022-07-22T02:41:38;6.97;;;1.65;;
51852;SDS011;37894;53.172;6.598;2022-07-22T02:44:04;11.57;;;2.00;;
51852;SDS011;37894;53.172;6.598;2022-07-22T02:46:30;7.40;;;2.03;;
51852;SDS011;37894;53.172;6.598;2022-07-22T02:48:56;8.75;;;1.90;;
51852;SDS011;37894;53.172;6.598;2022-07-22T02:51:22;11.55;;;2.05;;
51852;SDS011;37894;53.172;6.598;2022-07-22T02:53:47;6.07;;;1.80;;
51852;SDS011;37894;53.172;6.598;2022-07-22T02:56:13;5.78;;;2.22;;
51852;SDS011;37894;53.172;6.598;2022-07-22T02:58:40;11.38;;;2.45;;
51852;SDS011;37894;53.172;6.598;2022-07-22T03:01:06;8.70;;;2.20;;
51852;SDS011;37894;53.172;6.598;2022-07-22T03:03:32;6.53;;;2.10;;
51852;SDS011;37894;53.172;6.598;2022-07-22T03:05:57;8.45;;;1.70;;
51852;SDS011;37894;53.172;6.598;2022-07-22T03:08:23;6.10;;;1.83;;
51852;SDS011;37894;53.172;6.598;2022-07-22T03:10:50;5.57;;;1.77;;
51852;SDS011;37894;53.172;6.598;2022-07-22T03:13:16;5.10;;;1.65;;
51852;SDS011;37894;53.172;6.598;2022-07-22T03:15:41;6.10;;;1.90;;
51852;SDS011;37894;53.172;6.598;2022-07-22T03:18:07;4.28;;;1.73;;
51852;SDS011;37894;53.172;6.598;2022-07-22T03:20:33;5.85;;;1.70;;
51852;SDS011;37894;53.172;6.598;2022-07-22T03:22:59;4.75;;;1.67;;
51852;SDS011;37894;53.172;6.598;2022-07-22T03:25:24;6.03;;;1.95;;
51852;SDS011;37894;53.172;6.598;2022-07-22T03:27:50;5.55;;;1.80;;
51852;SDS011;37894;53.172;6.598;2022-07-22T03:30:15;3.63;;;1.65;;
51852;SDS011;37894;53.172;6.598;2022-07-22T03:32:41;7.00;;;1.77;;
51852;SDS011;37894;53.172;6.598;2022-07-22T03:35:14;6.63;;;1.92;;
51852;SDS011;37894;53.172;6.598;2022-07-22T03:37:41;6.97;;;2.08;;
51852;SDS011;37894;53.172;6.598;2022-07-22T03:40:07;8.02;;;2.08;;
51852;SDS011;37894;53.172;6.598;2022-07-22T03:42:33;5.00;;;1.70;;
51852;SDS011;37894;53.172;6.598;2022-07-22T03:44:59;5.82;;;1.92;;
51852;SDS011;37894;53.172;6.598;2022-07-22T03:47:25;5.43;;;1.60;;
51852;SDS011;37894;53.172;6.598;2022-07-22T03:49:51;5.38;;;2.05;;
51852;SDS011;37894;53.172;6.598;2022-07-22T03:52:17;5.85;;;2.00;;
51852;SDS011;37894;53.172;6.598;2022-07-22T03:54:42;6.28;;;2.00;;
51852;SDS011;37894;53.172;6.598;2022-07-22T03:57:08;4.18;;;2.00;;
51852;SDS011;37894;53.172;6.598;2022-07-22T03:59:34;9.25;;;2.10;;
51852;SDS011;37894;53.172;6.598;2022-07-22T04:02:00;5.05;;;1.65;;
51852;SDS011;37894;53.172;6.598;2022-07-22T04:04:26;6.45;;;2.05;;
51852;SDS011;37894;53.172;6.598;2022-07-22T04:06:52;9.95;;;2.22;;
51852;SDS011;37894;53.172;6.598;2022-07-22T04:09:18;6.22;;;2.13;;
51852;SDS011;37894;53.172;6.598;2022-07-22T04:11:44;6.38;;;1.95;;
51852;SDS011;37894;53.172;6.598;2022-07-22T04:14:11;7.30;;;2.00;;
51852;SDS011;37894;53.172;6.598;2022-07-22T04:16:37;7.47;;;1.90;;
51852;SDS011;37894;53.172;6.598;2022-07-22T04:19:03;5.75;;;2.17;;
51852;SDS011;37894;53.172;6.598;2022-07-22T04:21:29;7.43;;;1.95;;
51852;SDS011;37894;53.172;6.598;2022-07-22T04:23:54;6.03;;;1.98;;
51852;SDS011;37894;53.172;6.598;2022-07-22T04:26:20;8.82;;;2.72;;
51852;SDS011;37894;53.172;6.598;2022-07-22T04:28:46;6.65;;;1.92;;
51852;SDS011;37894;53.172;6.598;2022-07-22T04:31:12;7.03;;;2.03;;
51852;SDS011;37894;53.172;6.598;2022-07-22T04:33:37;5.97;;;1.90;;
51852;SDS011;37894;53.172;6.598;2022-07-22T04:36:03;5.75;;;1.70;;
51852;SDS011;37894;53.172;6.598;2022-07-22T04:38:29;8.15;;;1.90;;
51852;SDS011;37894;53.172;6.598;2022-07-22T04:40:55;9.60;;;2.10;;
51852;SDS011;37894;53.172;6.598;2022-07-22T04:43:21;5.65;;;2.00;;
51852;SDS011;37894;53.172;6.598;2022-07-22T04:45:47;7.43;;;2.03;;
51852;SDS011;37894;53.172;6.598;2022-07-22T04:48:12;9.75;;;1.80;;
51852;SDS011;37894;53.172;6.598;2022-07-22T04:50:38;6.10;;;2.13;;
51852;SDS011;37894;53.172;6.598;2022-07-22T04:53:04;7.55;;;1.95;;
51852;SDS011;37894;53.172;6.598;2022-07-22T04:55:29;7.05;;;2.10;;
51852;SDS011;37894;53.172;6.598;2022-07-22T04:57:55;6.07;;;1.77;;
51852;SDS011;37894;53.172;6.598;2022-07-22T05:00:21;9.73;;;2.55;;
51852;SDS011;37894;53.172;6.598;2022-07-22T05:02:47;8.60;;;1.70;;
51852;SDS011;37894;53.172;6.598;2022-07-22T05:05:13;4.90;;;1.73;;
51852;SDS011;37894;53.172;6.598;2022-07-22T05:07:39;9.00;;;2.00;;
51852;SDS011;37894;53.172;6.598;2022-07-22T05:10:04;10.80;;;2.42;;
51852;SDS011;37894;53.172;6.598;2022-07-22T05:12:30;8.00;;;2.10;;
51852;SDS011;37894;53.172;6.598;2022-07-22T05:14:56;7.90;;;1.58;;
51852;SDS011;37894;53.172;6.598;2022-07-22T05:17:22;10.45;;;4.22;;
51852;SDS011;37894;53.172;6.598;2022-07-22T05:19:47;5.18;;;1.65;;
51852;SDS011;37894;53.172;6.598;2022-07-22T05:22:13;5.15;;;1.70;;
51852;SDS011;37894;53.172;6.598;2022-07-22T05:24:39;6.45;;;2.22;;
51852;SDS011;37894;53.172;6.598;2022-07-22T05:27:05;6.53;;;1.80;;
51852;SDS011;37894;53.172;6.598;2022-07-22T05:29:30;6.80;;;1.73;;
51852;SDS011;37894;53.172;6.598;2022-07-22T05:31:56;5.30;;;1.70;;
51852;SDS011;37894;53.172;6.598;2022-07-22T05:34:22;4.50;;;1.70;;
51852;SDS011;37894;53.172;6.598;2022-07-22T05:36:48;5.97;;;1.50;;
51852;SDS011;37894;53.172;6.598;2022-07-22T05:39:13;5.93;;;1.60;;
51852;SDS011;37894;53.172;6.598;2022-07-22T05:41:39;13.48;;;1.90;;
51852;SDS011;37894;53.172;6.598;2022-07-22T05:44:05;5.32;;;1.65;;
51852;SDS011;37894;53.172;6.598;2022-07-22T05:46:31;6.57;;;1.70;;
51852;SDS011;37894;53.172;6.598;2022-07-22T05:48:56;5.10;;;1.60;;
51852;SDS011;37894;53.172;6.598;2022-07-22T05:51:22;5.80;;;1.90;;
51852;SDS011;37894;53.172;6.598;2022-07-22T05:53:48;4.65;;;1.33;;
51852;SDS011;37894;53.172;6.598;2022-07-22T05:56:14;5.32;;;1.55;;
51852;SDS011;37894;53.172;6.598;2022-07-22T05:58:40;5.55;;;1.30;;
51852;SDS011;37894;53.172;6.598;2022-07-22T06:01:07;7.05;;;1.73;;
51852;SDS011;37894;53.172;6.598;2022-07-22T06:03:33;9.63;;;3.10;;
51852;SDS011;37894;53.172;6.598;2022-07-22T06:05:59;7.57;;;1.42;;
51852;SDS011;37894;53.172;6.598;2022-07-22T06:08:27;5.13;;;1.60;;
51852;SDS011;37894;53.172;6.598;2022-07-22T06:10:53;7.60;;;1.60;;
51852;SDS011;37894;53.172;6.598;2022-07-22T06:13:19;6.50;;;1.60;;
51852;SDS011;37894;53.172;6.598;2022-07-22T06:15:44;4.15;;;1.40;;
51852;SDS011;37894;53.172;6.598;2022-07-22T06:18:10;7.40;;;1.50;;
51852;SDS011;37894;53.172;6.598;2022-07-22T06:20:36;5.35;;;1.75;;
51852;SDS011;37894;53.172;6.598;2022-07-22T06:23:01;7.63;;;1.70;;
51852;SDS011;37894;53.172;6.598;2022-07-22T06:25:27;5.63;;;1.60;;
51852;SDS011;37894;53.172;6.598;2022-07-22T06:27:53;7.72;;;1.85;;
51852;SDS011;37894;53.172;6.598;2022-07-22T06:30:19;5.25;;;1.55;;
51852;SDS011;37894;53.172;6.598;2022-07-22T06:32:45;5.22;;;1.50;;
51852;SDS011;37894;53.172;6.598;2022-07-22T06:35:11;7.35;;;1.88;;
51852;SDS011;37894;53.172;6.598;2022-07-22T06:37:37;8.80;;;2.92;;
51852;SDS011;37894;53.172;6.598;2022-07-22T06:40:03;7.72;;;1.70;;
51852;SDS011;37894;53.172;6.598;2022-07-22T06:42:29;5.30;;;1.70;;
51852;SDS011;37894;53.172;6.598;2022-07-22T06:44:55;5.28;;;1.80;;
51852;SDS011;37894;53.172;6.598;2022-07-22T06:47:20;9.52;;;1.77;;
51852;SDS011;37894;53.172;6.598;2022-07-22T06:49:46;5.97;;;1.67;;
51852;SDS011;37894;53.172;6.598;2022-07-22T06:52:12;4.50;;;1.40;;
51852;SDS011;37894;53.172;6.598;2022-07-22T06:54:37;8.95;;;1.90;;
51852;SDS011;37894;53.172;6.598;2022-07-22T06:57:03;5.68;;;1.58;;
51852;SDS011;37894;53.172;6.598;2022-07-22T06:59:29;7.50;;;1.85;;
51852;SDS011;37894;53.172;6.598;2022-07-22T07:01:54;10.65;;;2.67;;
51852;SDS011;37894;53.172;6.598;2022-07-22T07:04:20;8.15;;;1.55;;
51852;SDS011;37894;53.172;6.598;2022-07-22T07:06:45;6.07;;;1.60;;
51852;SDS011;37894;53.172;6.598;2022-07-22T07:09:11;7.43;;;1.92;;
51852;SDS011;37894;53.172;6.598;2022-07-22T07:11:37;7.50;;;1.63;;
51852;SDS011;37894;53.172;6.598;2022-07-22T07:14:03;4.53;;;1.52;;
51852;SDS011;37894;53.172;6.598;2022-07-22T07:16:28;5.63;;;1.60;;
51852;SDS011;37894;53.172;6.598;2022-07-22T07:18:54;7.40;;;1.58;;
51852;SDS011;37894;53.172;6.598;2022-07-22T07:21:20;5.15;;;1.40;;
51852;SDS011;37894;53.172;6.598;2022-07-22T07:23:46;5.05;;;1.45;;
51852;SDS011;37894;53.172;6.598;2022-07-22T07:26:12;9.50;;;1.92;;
51852;SDS011;37894;53.172;6.598;2022-07-22T07:28:38;4.43;;;1.35;;
51852;SDS011;37894;53.172;6.598;2022-07-22T07:31:04;14.23;;;2.10;;
51852;SDS011;37894;53.172;6.598;2022-07-22T07:33:30;4.40;;;1.33;;
51852;SDS011;37894;53.172;6.598;2022-07-22T07:35:55;4.45;;;1.38;;
51852;SDS011;37894;53.172;6.598;2022-07-22T07:38:21;5.07;;;1.13;;
51852;SDS011;37894;53.172;6.598;2022-07-22T07:40:47;3.47;;;1.33;;
51852;SDS011;37894;53.172;6.598;2022-07-22T07:43:13;6.00;;;1.70;;
51852;SDS011;37894;53.172;6.598;2022-07-22T07:45:38;7.82;;;1.85;;
51852;SDS011;37894;53.172;6.598;2022-07-22T07:48:04;5.15;;;1.33;;
51852;SDS011;37894;53.172;6.598;2022-07-22T07:50:30;4.65;;;1.52;;
51852;SDS011;37894;53.172;6.598;2022-07-22T07:52:56;8.05;;;1.77;;
51852;SDS011;37894;53.172;6.598;2022-07-22T07:55:22;6.50;;;1.48;;
51852;SDS011;37894;53.172;6.598;2022-07-22T07:57:49;6.95;;;1.40;;
51852;SDS011;37894;53.172;6.598;2022-07-22T08:00:17;5.03;;;1.40;;
51852;SDS011;37894;53.172;6.598;2022-07-22T08:02:45;5.85;;;1.33;;
51852;SDS011;37894;53.172;6.598;2022-07-22T08:05:11;5.22;;;1.50;;
51852;SDS011;37894;53.172;6.598;2022-07-22T08:07:36;5.75;;;1.30;;
51852;SDS011;37894;53.172;6.598;2022-07-22T08:10:03;4.70;;;1.45;;
51852;SDS011;37894;53.172;6.598;2022-07-22T08:12:30;7.38;;;1.55;;
51852;SDS011;37894;53.172;6.598;2022-07-22T08:14:56;6.57;;;1.40;;
51852;SDS011;37894;53.172;6.598;2022-07-22T08:17:21;5.40;;;1.75;;
51852;SDS011;37894;53.172;6.598;2022-07-22T08:19:47;6.13;;;1.52;;
51852;SDS011;37894;53.172;6.598;2022-07-22T08:22:13;5.93;;;1.35;;
51852;SDS011;37894;53.172;6.598;2022-07-22T08:24:38;5.70;;;1.35;;
51852;SDS011;37894;53.172;6.598;2022-07-22T08:27:04;5.22;;;1.30;;
51852;SDS011;37894;53.172;6.598;2022-07-22T08:29:30;8.23;;;1.50;;
51852;SDS011;37894;53.172;6.598;2022-07-22T08:31:55;5.15;;;1.58;;
51852;SDS011;37894;53.172;6.598;2022-07-22T08:34:21;4.85;;;1.33;;
51852;SDS011;37894;53.172;6.598;2022-07-22T08:36:47;4.03;;;1.08;;
51852;SDS011;37894;53.172;6.598;2022-07-22T08:39:12;7.63;;;1.40;;
51852;SDS011;37894;53.172;6.598;2022-07-22T08:41:38;6.97;;;1.30;;
51852;SDS011;37894;53.172;6.598;2022-07-22T08:44:06;4.50;;;1.42;;
51852;SDS011;37894;53.172;6.598;2022-07-22T08:46:33;6.53;;;1.45;;
51852;SDS011;37894;53.172;6.598;2022-07-22T08:48:59;5.03;;;1.17;;
51852;SDS011;37894;53.172;6.598;2022-07-22T08:51:26;6.72;;;1.42;;
51852;SDS011;37894;53.172;6.598;2022-07-22T08:53:53;4.63;;;1.38;;
51852;SDS011;37894;53.172;6.598;2022-07-22T08:56:22;3.15;;;1.30;;
51852;SDS011;37894;53.172;6.598;2022-07-22T08:58:47;3.47;;;1.45;;
51852;SDS011;37894;53.172;6.598;2022-07-22T09:01:14;4.75;;;1.20;;
51852;SDS011;37894;53.172;6.598;2022-07-22T09:06:12;4.18;;;1.25;;
51852;SDS011;37894;53.172;6.598;2022-07-22T09:08:57;7.70;;;1.23;;
51852;SDS011;37894;53.172;6.598;2022-07-22T09:11:28;4.65;;;1.40;;
51852;SDS011;37894;53.172;6.598;2022-07-22T09:13:55;6.20;;;1.40;;
51852;SDS011;37894;53.172;6.598;2022-07-22T09:16:42;5.50;;;1.35;;
51852;SDS011;37894;53.172;6.598;2022-07-22T09:19:12;4.78;;;1.20;;
51852;SDS011;37894;53.172;6.598;2022-07-22T09:21:40;6.07;;;1.40;;
51852;SDS011;37894;53.172;6.598;2022-07-22T09:24:07;6.22;;;1.27;;
51852;SDS011;37894;53.172;6.598;2022-07-22T09:26:38;7.38;;;1.67;;
51852;SDS011;37894;53.172;6.598;2022-07-22T09:29:05;3.92;;;1.20;;
51852;SDS011;37894;53.172;6.598;2022-07-22T09:31:35;4.55;;;1.48;;
51852;SDS011;37894;53.172;6.598;2022-07-22T09:34:02;4.40;;;1.10;;
51852;SDS011;37894;53.172;6.598;2022-07-22T09:36:29;4.10;;;1.50;;
51852;SDS011;37894;53.172;6.598;2022-07-22T09:38:56;3.75;;;1.45;;
51852;SDS011;37894;53.172;6.598;2022-07-22T09:41:22;5.78;;;1.20;;
51852;SDS011;37894;53.172;6.598;2022-07-22T09:43:48;3.97;;;1.00;;
51852;SDS011;37894;53.172;6.598;2022-07-22T09:46:15;4.15;;;1.08;;
51852;SDS011;37894;53.172;6.598;2022-07-22T09:48:41;4.65;;;1.23;;
51852;SDS011;37894;53.172;6.598;2022-07-22T09:51:08;5.38;;;1.00;;
51852;SDS011;37894;53.172;6.598;2022-07-22T09:53:34;3.60;;;1.30;;
51852;SDS011;37894;53.172;6.598;2022-07-22T09:56:01;4.65;;;1.13;;
51852;SDS011;37894;53.172;6.598;2022-07-22T09:58:29;3.13;;;1.10;;
51852;SDS011;37894;53.172;6.598;2022-07-22T10:00:57;6.60;;;1.10;;
51852;SDS011;37894;53.172;6.598;2022-07-22T10:03:28;7.15;;;1.20;;
51852;SDS011;37894;53.172;6.598;2022-07-22T10:05:56;3.92;;;1.17;;
51852;SDS011;37894;53.172;6.598;2022-07-22T10:08:23;6.22;;;1.33;;
51852;SDS011;37894;53.172;6.598;2022-07-22T10:10:50;6.18;;;1.17;;
51852;SDS011;37894;53.172;6.598;2022-07-22T10:13:17;6.68;;;1.30;;
51852;SDS011;37894;53.172;6.598;2022-07-22T10:15:44;6.25;;;1.30;;
51852;SDS011;37894;53.172;6.598;2022-07-22T10:18:15;4.32;;;1.08;;
51852;SDS011;37894;53.172;6.598;2022-07-22T10:20:43;3.58;;;1.25;;
51852;SDS011;37894;53.172;6.598;2022-07-22T10:23:10;5.05;;;1.40;;
51852;SDS011;37894;53.172;6.598;2022-07-22T10:25:54;3.67;;;1.10;;
51852;SDS011;37894;53.172;6.598;2022-07-22T10:28:30;4.57;;;0.80;;
51852;SDS011;37894;53.172;6.598;2022-07-22T10:33:49;2.28;;;0.80;;
51852;SDS011;37894;53.172;6.598;2022-07-22T10:36:33;3.38;;;0.90;;
51852;SDS011;37894;53.172;6.598;2022-07-22T10:39:04;6.45;;;1.00;;
51852;SDS011;37894;53.172;6.598;2022-07-22T10:41:33;2.03;;;0.93;;
51852;SDS011;37894;53.172;6.598;2022-07-22T10:44:04;2.53;;;0.85;;
51852;SDS011;37894;53.172;6.598;2022-07-22T10:49:18;3.72;;;0.80;;
51852;SDS011;37894;53.172;6.598;2022-07-22T10:54:32;2.10;;;0.60;;
51852;SDS011;37894;53.172;6.598;2022-07-22T10:57:02;2.47;;;1.00;;
51852;SDS011;37894;53.172;6.598;2022-07-22T10:59:27;2.20;;;0.90;;
51852;SDS011;37894;53.172;6.598;2022-07-22T11:01:53;1.92;;;0.70;;
51852;SDS011;37894;53.172;6.598;2022-07-22T11:04:24;2.60;;;0.90;;
51852;SDS011;37894;53.172;6.598;2022-07-22T11:06:52;4.90;;;0.80;;
51852;SDS011;37894;53.172;6.598;2022-07-22T11:09:20;1.83;;;0.70;;
51852;SDS011;37894;53.172;6.598;2022-07-22T11:11:48;3.75;;;0.80;;
51852;SDS011;37894;53.172;6.598;2022-07-22T11:19:34;2.40;;;0.80;;
51852;SDS011;37894;53.172;6.598;2022-07-22T11:22:07;2.95;;;0.98;;
51852;SDS011;37894;53.172;6.598;2022-07-22T11:24:38;2.15;;;0.77;;
51852;SDS011;37894;53.172;6.598;2022-07-22T11:27:06;2.25;;;0.80;;
51852;SDS011;37894;53.172;6.598;2022-07-22T11:29:38;2.55;;;1.00;;
51852;SDS011;37894;53.172;6.598;2022-07-22T11:32:08;5.05;;;1.00;;
51852;SDS011;37894;53.172;6.598;2022-07-22T11:34:35;3.28;;;0.93;;
51852;SDS011;37894;53.172;6.598;2022-07-22T11:37:03;4.63;;;0.90;;
51852;SDS011;37894;53.172;6.598;2022-07-22T11:39:29;4.70;;;1.00;;
51852;SDS011;37894;53.172;6.598;2022-07-22T11:41:57;3.47;;;0.90;;
51852;SDS011;37894;53.172;6.598;2022-07-22T11:44:26;3.97;;;0.73;;
51852;SDS011;37894;53.172;6.598;2022-07-22T11:46:54;4.25;;;0.82;;
51852;SDS011;37894;53.172;6.598;2022-07-22T11:49:30;2.95;;;0.90;;
51852;SDS011;37894;53.172;6.598;2022-07-22T11:52:01;5.18;;;0.95;;
51852;SDS011;37894;53.172;6.598;2022-07-22T11:54:33;3.28;;;0.90;;
51852;SDS011;37894;53.172;6.598;2022-07-22T11:56:59;3.95;;;0.90;;
51852;SDS011;37894;53.172;6.598;2022-07-22T11:59:27;4.63;;;0.82;;
51852;SDS011;37894;53.172;6.598;2022-07-22T12:01:53;2.65;;;0.90;;
51852;SDS011;37894;53.172;6.598;2022-07-22T12:04:20;2.83;;;0.82;;
51852;SDS011;37894;53.172;6.598;2022-07-22T12:06:47;4.43;;;0.80;;
51852;SDS011;37894;53.172;6.598;2022-07-22T12:09:15;1.30;;;0.70;;
51852;SDS011;37894;53.172;6.598;2022-07-22T12:11:48;3.93;;;0.70;;
51852;SDS011;37894;53.172;6.598;2022-07-22T12:14:21;1.95;;;0.77;;
51852;SDS011;37894;53.172;6.598;2022-07-22T12:16:55;1.70;;;0.70;;
51852;SDS011;37894;53.172;6.598;2022-07-22T12:19:26;3.03;;;0.60;;
51852;SDS011;37894;53.172;6.598;2022-07-22T12:24:32;2.95;;;0.70;;
51852;SDS011;37894;53.172;6.598;2022-07-22T12:27:08;3.13;;;0.60;;
51852;SDS011;37894;53.172;6.598;2022-07-22T12:32:05;3.42;;;0.63;;
51852;SDS011;37894;53.172;6.598;2022-07-22T12:34:42;2.38;;;0.77;;
51852;SDS011;37894;53.172;6.598;2022-07-22T12:37:32;4.50;;;0.80;;
51852;SDS011;37894;53.172;6.598;2022-07-22T12:40:09;2.55;;;0.85;;
51852;SDS011;37894;53.172;6.598;2022-07-22T12:42:42;3.08;;;0.70;;
51852;SDS011;37894;53.172;6.598;2022-07-22T12:45:13;1.50;;;0.63;;
51852;SDS011;37894;53.172;6.598;2022-07-22T12:52:58;3.40;;;0.90;;
51852;SDS011;37894;53.172;6.598;2022-07-22T12:55:30;2.60;;;0.65;;
51852;SDS011;37894;53.172;6.598;2022-07-22T12:58:00;2.80;;;0.75;;
51852;SDS011;37894;53.172;6.598;2022-07-22T13:00:29;2.75;;;0.80;;
51852;SDS011;37894;53.172;6.598;2022-07-22T13:02:56;2.78;;;0.63;;
51852;SDS011;37894;53.172;6.598;2022-07-22T13:05:22;1.63;;;0.50;;
51852;SDS011;37894;53.172;6.598;2022-07-22T13:07:49;1.63;;;0.60;;
51852;SDS011;37894;53.172;6.598;2022-07-22T13:10:15;2.88;;;0.68;;
51852;SDS011;37894;53.172;6.598;2022-07-22T13:12:41;1.08;;;0.50;;
51852;SDS011;37894;53.172;6.598;2022-07-22T13:15:08;1.80;;;0.70;;
51852;SDS011;37894;53.172;6.598;2022-07-22T13:17:34;2.72;;;0.77;;
51852;SDS011;37894;53.172;6.598;2022-07-22T13:20:00;0.90;;;0.60;;
51852;SDS011;37894;53.172;6.598;2022-07-22T13:22:26;2.00;;;0.63;;
51852;SDS011;37894;53.172;6.598;2022-07-22T13:24:52;2.03;;;0.73;;
51852;SDS011;37894;53.172;6.598;2022-07-22T13:27:18;3.10;;;0.60;;
51852;SDS011;37894;53.172;6.598;2022-07-22T13:29:43;1.98;;;0.50;;
51852;SDS011;37894;53.172;6.598;2022-07-22T13:32:09;1.60;;;0.70;;
51852;SDS011;37894;53.172;6.598;2022-07-22T13:34:35;2.80;;;0.68;;
51852;SDS011;37894;53.172;6.598;2022-07-22T13:37:00;2.17;;;0.75;;
51852;SDS011;37894;53.172;6.598;2022-07-22T13:39:26;1.27;;;0.60;;
51852;SDS011;37894;53.172;6.598;2022-07-22T13:41:52;2.30;;;0.63;;
51852;SDS011;37894;53.172;6.598;2022-07-22T13:44:18;1.50;;;0.60;;
51852;SDS011;37894;53.172;6.598;2022-07-22T13:46:43;2.42;;;0.80;;
51852;SDS011;37894;53.172;6.598;2022-07-22T13:49:10;2.38;;;0.68;;
51852;SDS011;37894;53.172;6.598;2022-07-22T13:51:36;1.02;;;0.50;;
51852;SDS011;37894;53.172;6.598;2022-07-22T13:54:02;1.63;;;0.60;;
51852;SDS011;37894;53.172;6.598;2022-07-22T13:56:28;3.83;;;0.80;;
51852;SDS011;37894;53.172;6.598;2022-07-22T13:58:54;1.95;;;0.65;;
51852;SDS011;37894;53.172;6.598;2022-07-22T14:01:19;1.27;;;0.70;;
51852;SDS011;37894;53.172;6.598;2022-07-22T14:03:45;3.03;;;0.80;;
51852;SDS011;37894;53.172;6.598;2022-07-22T14:06:11;3.50;;;0.95;;
51852;SDS011;37894;53.172;6.598;2022-07-22T14:08:37;4.80;;;1.10;;
51852;SDS011;37894;53.172;6.598;2022-07-22T14:11:03;4.22;;;1.75;;
51852;SDS011;37894;53.172;6.598;2022-07-22T14:13:29;2.97;;;1.00;;
51852;SDS011;37894;53.172;6.598;2022-07-22T14:15:55;2.03;;;0.85;;
51852;SDS011;37894;53.172;6.598;2022-07-22T14:18:21;2.63;;;0.90;;
51852;SDS011;37894;53.172;6.598;2022-07-22T14:20:46;3.33;;;0.90;;
51852;SDS011;37894;53.172;6.598;2022-07-22T14:23:12;3.92;;;0.93;;
51852;SDS011;37894;53.172;6.598;2022-07-22T14:25:40;3.38;;;1.00;;
51852;SDS011;37894;53.172;6.598;2022-07-22T14:28:06;6.10;;;1.20;;
51852;SDS011;37894;53.172;6.598;2022-07-22T14:30:32;5.28;;;1.02;;
51852;SDS011;37894;53.172;6.598;2022-07-22T14:32:59;3.08;;;0.93;;
51852;SDS011;37894;53.172;6.598;2022-07-22T14:35:25;2.75;;;0.82;;
51852;SDS011;37894;53.172;6.598;2022-07-22T14:37:51;3.33;;;0.73;;
51852;SDS011;37894;53.172;6.598;2022-07-22T14:40:16;8.40;;;1.40;;
51852;SDS011;37894;53.172;6.598;2022-07-22T14:42:42;3.05;;;1.10;;
51852;SDS011;37894;53.172;6.598;2022-07-22T14:45:08;3.63;;;0.85;;
51852;SDS011;37894;53.172;6.598;2022-07-22T14:47:37;3.25;;;1.00;;
51852;SDS011;37894;53.172;6.598;2022-07-22T14:50:04;2.42;;;0.88;;
51852;SDS011;37894;53.172;6.598;2022-07-22T14:52:31;3.38;;;0.90;;
51852;SDS011;37894;53.172;6.598;2022-07-22T14:54:57;2.63;;;0.80;;
51852;SDS011;37894;53.172;6.598;2022-07-22T14:57:22;3.22;;;0.80;;
51852;SDS011;37894;53.172;6.598;2022-07-22T14:59:48;3.20;;;1.02;;
51852;SDS011;37894;53.172;6.598;2022-07-22T15:02:14;2.28;;;0.77;;
51852;SDS011;37894;53.172;6.598;2022-07-22T15:04:40;2.05;;;0.80;;
51852;SDS011;37894;53.172;6.598;2022-07-22T15:07:05;5.32;;;1.10;;
51852;SDS011;37894;53.172;6.598;2022-07-22T15:09:31;3.35;;;0.90;;